sensor_id;sensor_type;location;lat;lon;timestamp;pressure;altitude;pressure_sealevel;temperature;humidity
8501;BME280;4288;48.484;10.024;2023-12-28T00:00:14;95745.19;;;5.24;nan
8501;BME280;4288;48.484;10.024;2023-12-28T00:02:41;95752.47;;;5.43;nan
8501;BME280;4288;48.484;10.024;2023-12-28T00:05:10;95761.03;;;5.52;nan
8501;BME280;4288;48.484;10.024;2023-12-28T00:07:37;95757.19;;;5.65;nan
8501;BME280;4288;48.484;10.024;2023-12-28T00:10:05;95761.66;;;5.77;nan
8501;BME280;4288;48.484;10.024;2023-12-28T00:12:33;95761.91;;;5.87;nan
8501;BME280;4288;48.484;10.024;2023-12-28T00:15:00;95768.19;;;5.95;nan
8501;BME280;4288;48.484;10.024;2023-12-28T00:17:27;95776.97;;;5.99;nan
8501;BME280;4288;48.484;10.024;2023-12-28T00:19:55;95773.13;;;6.12;nan
8501;BME280;4288;48.484;10.024;2023-12-28T00:22:24;95766.75;;;6.16;nan
8501;BME280;4288;48.484;10.024;2023-12-28T00:24:51;95774.41;;;6.18;nan
8501;BME280;4288;48.484;10.024;2023-12-28T00:27:18;95774.13;;;6.23;nan
8501;BME280;4288;48.484;10.024;2023-12-28T00:29:46;95777.56;;;6.08;nan
8501;BME280;4288;48.484;10.024;2023-12-28T00:32:13;95786.81;;;6.14;nan
8501;BME280;4288;48.484;10.024;2023-12-28T00:34:41;95787.25;;;6.00;nan
8501;BME280;4288;48.484;10.024;2023-12-28T00:37:08;95783.81;;;6.00;nan
8501;BME280;4288;48.484;10.024;2023-12-28T00:39:37;95783.75;;;5.96;nan
8501;BME280;4288;48.484;10.024;2023-12-28T00:42:05;95780.66;;;5.94;nan
8501;BME280;4288;48.484;10.024;2023-12-28T00:44:32;95779.03;;;5.90;nan
8501;BME280;4288;48.484;10.024;2023-12-28T00:47:00;95775.09;;;5.84;nan
8501;BME280;4288;48.484;10.024;2023-12-28T00:49:27;95775.41;;;5.82;nan
8501;BME280;4288;48.484;10.024;2023-12-28T00:51:55;95773.09;;;5.81;nan
8501;BME280;4288;48.484;10.024;2023-12-28T00:54:22;95777.13;;;5.75;nan
8501;BME280;4288;48.484;10.024;2023-12-28T00:56:51;95777.19;;;5.63;nan
8501;BME280;4288;48.484;10.024;2023-12-28T00:59:18;95784.81;;;5.64;nan
8501;BME280;4288;48.484;10.024;2023-12-28T01:01:45;95784.72;;;5.61;nan
8501;BME280;4288;48.484;10.024;2023-12-28T01:04:13;95780.63;;;5.63;nan
8501;BME280;4288;48.484;10.024;2023-12-28T01:06:40;95771.19;;;5.66;nan
8501;BME280;4288;48.484;10.024;2023-12-28T01:09:08;95773.03;;;5.62;nan
8501;BME280;4288;48.484;10.024;2023-12-28T01:11:35;95786.59;;;5.60;nan
8501;BME280;4288;48.484;10.024;2023-12-28T01:14:04;95786.78;;;5.52;nan
8501;BME280;4288;48.484;10.024;2023-12-28T01:16:31;95786.59;;;5.60;nan
8501;BME280;4288;48.484;10.024;2023-12-28T01:18:59;95786.09;;;5.55;nan
8501;BME280;4288;48.484;10.024;2023-12-28T01:21:26;95787.22;;;5.54;nan
8501;BME280;4288;48.484;10.024;2023-12-28T01:23:54;95786.78;;;5.52;nan
8501;BME280;4288;48.484;10.024;2023-12-28T01:26:22;95789.09;;;5.53;nan
8501;BME280;4288;48.484;10.024;2023-12-28T01:28:49;95787.13;;;5.66;nan
8501;BME280;4288;48.484;10.024;2023-12-28T01:31:18;95796.13;;;5.77;nan
8501;BME280;4288;48.484;10.024;2023-12-28T01:33:45;95796.91;;;5.77;nan
8501;BME280;4288;48.484;10.024;2023-12-28T01:36:17;95786.38;;;5.81;nan
8501;BME280;4288;48.484;10.024;2023-12-28T01:38:45;95793.47;;;5.77;nan
8501;BME280;4288;48.484;10.024;2023-12-28T01:41:12;95808.00;;;5.67;nan
8501;BME280;4288;48.484;10.024;2023-12-28T01:43:41;95801.41;;;5.61;nan
8501;BME280;4288;48.484;10.024;2023-12-28T01:46:13;95812.84;;;5.50;nan
8501;BME280;4288;48.484;10.024;2023-12-28T01:48:45;95812.06;;;5.49;nan
8501;BME280;4288;48.484;10.024;2023-12-28T01:51:15;95804.38;;;5.44;nan
8501;BME280;4288;48.484;10.024;2023-12-28T01:53:42;95810.00;;;5.42;nan
8501;BME280;4288;48.484;10.024;2023-12-28T01:56:10;95804.47;;;5.48;nan
8501;BME280;4288;48.484;10.024;2023-12-28T01:58:40;95819.31;;;5.36;nan
8501;BME280;4288;48.484;10.024;2023-12-28T02:01:09;95808.44;;;5.26;nan
8501;BME280;4288;48.484;10.024;2023-12-28T02:03:37;95816.63;;;4.93;nan
8501;BME280;4288;48.484;10.024;2023-12-28T02:06:07;95833.41;;;4.85;nan
8501;BME280;4288;48.484;10.024;2023-12-28T02:08:34;95836.72;;;4.82;nan
8501;BME280;4288;48.484;10.024;2023-12-28T02:11:02;95832.22;;;4.71;nan
8501;BME280;4288;48.484;10.024;2023-12-28T02:13:29;95822.31;;;4.68;nan
8501;BME280;4288;48.484;10.024;2023-12-28T02:16:01;95819.22;;;4.66;nan
8501;BME280;4288;48.484;10.024;2023-12-28T02:18:34;95819.13;;;4.62;nan
8501;BME280;4288;48.484;10.024;2023-12-28T02:21:06;95818.44;;;4.53;nan
8501;BME280;4288;48.484;10.024;2023-12-28T02:23:35;95817.03;;;4.56;nan
8501;BME280;4288;48.484;10.024;2023-12-28T02:26:04;95811.09;;;4.34;nan
8501;BME280;4288;48.484;10.024;2023-12-28T02:28:31;95811.75;;;4.31;nan
8501;BME280;4288;48.484;10.024;2023-12-28T02:31:00;95817.47;;;4.21;nan
8501;BME280;4288;48.484;10.024;2023-12-28T02:33:34;95816.28;;;4.19;nan
8501;BME280;4288;48.484;10.024;2023-12-28T02:36:09;95819.81;;;4.23;nan
8501;BME280;4288;48.484;10.024;2023-12-28T02:38:38;95821.69;;;4.22;nan
8501;BME280;4288;48.484;10.024;2023-12-28T02:41:08;95824.22;;;4.19;nan
8501;BME280;4288;48.484;10.024;2023-12-28T02:43:37;95820.56;;;4.23;nan
8501;BME280;4288;48.484;10.024;2023-12-28T02:46:04;95824.09;;;4.27;nan
8501;BME280;4288;48.484;10.024;2023-12-28T02:48:31;95821.91;;;4.29;nan
8501;BME280;4288;48.484;10.024;2023-12-28T02:50:59;95833.78;;;4.35;nan
8501;BME280;4288;48.484;10.024;2023-12-28T02:53:26;95835.13;;;4.29;nan
8501;BME280;4288;48.484;10.024;2023-12-28T02:55:54;95844.94;;;4.29;nan
8501;BME280;4288;48.484;10.024;2023-12-28T02:58:22;95838.88;;;4.28;nan
8501;BME280;4288;48.484;10.024;2023-12-28T03:00:50;95841.28;;;4.33;nan
8501;BME280;4288;48.484;10.024;2023-12-28T03:03:17;95839.19;;;4.39;nan
8501;BME280;4288;48.484;10.024;2023-12-28T03:05:45;95833.47;;;4.37;nan
8501;BME280;4288;48.484;10.024;2023-12-28T03:08:12;95828.75;;;4.42;nan
8501;BME280;4288;48.484;10.024;2023-12-28T03:10:40;95845.16;;;4.48;nan
8501;BME280;4288;48.484;10.024;2023-12-28T03:13:07;95837.56;;;4.46;nan
8501;BME280;4288;48.484;10.024;2023-12-28T03:15:36;95842.50;;;4.48;nan
8501;BME280;4288;48.484;10.024;2023-12-28T03:18:03;95841.41;;;4.49;nan
8501;BME280;4288;48.484;10.024;2023-12-28T03:20:31;95824.44;;;4.50;nan
8501;BME280;4288;48.484;10.024;2023-12-28T03:22:58;95835.22;;;4.57;nan
8501;BME280;4288;48.484;10.024;2023-12-28T03:25:25;95835.56;;;4.56;nan
8501;BME280;4288;48.484;10.024;2023-12-28T03:27:53;95827.72;;;4.59;nan
8501;BME280;4288;48.484;10.024;2023-12-28T03:30:21;95834.44;;;4.57;nan
8501;BME280;4288;48.484;10.024;2023-12-28T03:32:49;95846.78;;;4.52;nan
8501;BME280;4288;48.484;10.024;2023-12-28T03:35:17;95834.56;;;4.48;nan
8501;BME280;4288;48.484;10.024;2023-12-28T03:37:44;95834.56;;;4.48;nan
8501;BME280;4288;48.484;10.024;2023-12-28T03:40:12;95830.50;;;4.50;nan
8501;BME280;4288;48.484;10.024;2023-12-28T03:42:39;95832.25;;;4.46;nan
8501;BME280;4288;48.484;10.024;2023-12-28T03:45:08;95841.28;;;4.45;nan
8501;BME280;4288;48.484;10.024;2023-12-28T03:47:35;95841.41;;;4.37;nan
8501;BME280;4288;48.484;10.024;2023-12-28T03:50:05;95839.09;;;4.35;nan
8501;BME280;4288;48.484;10.024;2023-12-28T03:52:32;95838.88;;;4.28;nan
8501;BME280;4288;48.484;10.024;2023-12-28T03:55:00;95843.63;;;4.23;nan
8501;BME280;4288;48.484;10.024;2023-12-28T03:57:27;95840.84;;;4.31;nan
8501;BME280;4288;48.484;10.024;2023-12-28T03:59:54;95845.59;;;4.26;nan
8501;BME280;4288;48.484;10.024;2023-12-28T04:02:22;95837.22;;;4.24;nan
8501;BME280;4288;48.484;10.024;2023-12-28T04:04:50;95840.41;;;4.05;nan
8501;BME280;4288;48.484;10.024;2023-12-28T04:07:19;95819.44;;;3.88;nan
8501;BME280;4288;48.484;10.024;2023-12-28T04:09:47;95821.00;;;3.89;nan
8501;BME280;4288;48.484;10.024;2023-12-28T04:12:14;95816.59;;;3.81;nan
8501;BME280;4288;48.484;10.024;2023-12-28T04:14:41;95819.00;;;3.74;nan
8501;BME280;4288;48.484;10.024;2023-12-28T04:17:09;95828.66;;;3.58;nan
8501;BME280;4288;48.484;10.024;2023-12-28T04:19:36;95835.19;;;3.60;nan
8501;BME280;4288;48.484;10.024;2023-12-28T04:22:04;95845.59;;;3.57;nan
8501;BME280;4288;48.484;10.024;2023-12-28T04:24:32;95840.34;;;3.69;nan
8501;BME280;4288;48.484;10.024;2023-12-28T04:27:00;95835.97;;;3.73;nan
8501;BME280;4288;48.484;10.024;2023-12-28T04:29:27;95836.22;;;3.80;nan
8501;BME280;4288;48.484;10.024;2023-12-28T04:31:54;95839.94;;;3.79;nan
8501;BME280;4288;48.484;10.024;2023-12-28T04:34:22;95839.81;;;3.76;nan
8501;BME280;4288;48.484;10.024;2023-12-28T04:36:49;95838.50;;;3.70;nan
8501;BME280;4288;48.484;10.024;2023-12-28T04:39:18;95839.78;;;3.63;nan
8501;BME280;4288;48.484;10.024;2023-12-28T04:41:47;95850.25;;;3.60;nan
8501;BME280;4288;48.484;10.024;2023-12-28T04:44:14;95847.34;;;3.41;nan
8501;BME280;4288;48.484;10.024;2023-12-28T04:46:41;95847.22;;;3.17;nan
8501;BME280;4288;48.484;10.024;2023-12-28T04:49:11;95854.81;;;3.18;nan
8501;BME280;4288;48.484;10.024;2023-12-28T04:51:42;95846.47;;;2.96;nan
8501;BME280;4288;48.484;10.024;2023-12-28T04:54:10;95857.47;;;2.77;nan
8501;BME280;4288;48.484;10.024;2023-12-28T04:56:37;95848.84;;;2.68;nan
8501;BME280;4288;48.484;10.024;2023-12-28T04:59:06;95841.97;;;2.76;nan
8501;BME280;4288;48.484;10.024;2023-12-28T05:01:33;95839.66;;;2.74;nan
8501;BME280;4288;48.484;10.024;2023-12-28T05:04:07;95841.31;;;2.58;nan
8501;BME280;4288;48.484;10.024;2023-12-28T05:06:34;95842.75;;;2.55;nan
8501;BME280;4288;48.484;10.024;2023-12-28T05:09:01;95840.31;;;2.42;nan
8501;BME280;4288;48.484;10.024;2023-12-28T05:11:29;95839.91;;;2.40;nan
8501;BME280;4288;48.484;10.024;2023-12-28T05:13:56;95845.91;;;2.40;nan
8501;BME280;4288;48.484;10.024;2023-12-28T05:16:25;95840.50;;;2.37;nan
8501;BME280;4288;48.484;10.024;2023-12-28T05:18:53;95846.69;;;2.41;nan
8501;BME280;4288;48.484;10.024;2023-12-28T05:21:20;95846.69;;;2.41;nan
8501;BME280;4288;48.484;10.024;2023-12-28T05:23:47;95851.78;;;2.46;nan
8501;BME280;4288;48.484;10.024;2023-12-28T05:26:15;95846.22;;;2.47;nan
8501;BME280;4288;48.484;10.024;2023-12-28T05:28:42;95848.53;;;2.49;nan
8501;BME280;4288;48.484;10.024;2023-12-28T05:31:10;95854.25;;;2.51;nan
8501;BME280;4288;48.484;10.024;2023-12-28T05:33:40;95856.81;;;2.59;nan
8501;BME280;4288;48.484;10.024;2023-12-28T05:36:08;95853.75;;;2.57;nan
8501;BME280;4288;48.484;10.024;2023-12-28T05:38:35;95852.31;;;2.60;nan
8501;BME280;4288;48.484;10.024;2023-12-28T05:41:03;95854.00;;;2.64;nan
8501;BME280;4288;48.484;10.024;2023-12-28T05:43:30;95859.41;;;2.68;nan
8501;BME280;4288;48.484;10.024;2023-12-28T05:45:57;95857.00;;;2.54;nan
8501;BME280;4288;48.484;10.024;2023-12-28T05:48:25;95841.75;;;2.60;nan
8501;BME280;4288;48.484;10.024;2023-12-28T05:50:53;95847.88;;;2.52;nan
8501;BME280;4288;48.484;10.024;2023-12-28T05:53:21;95843.75;;;2.42;nan
8501;BME280;4288;48.484;10.024;2023-12-28T05:55:48;95849.66;;;2.39;nan
8501;BME280;4288;48.484;10.024;2023-12-28T05:58:16;95840.38;;;2.33;nan
8501;BME280;4288;48.484;10.024;2023-12-28T06:00:43;95851.97;;;2.41;nan
8501;BME280;4288;48.484;10.024;2023-12-28T06:03:12;95836.50;;;2.31;nan
8501;BME280;4288;48.484;10.024;2023-12-28T06:05:39;95856.81;;;2.30;nan
8501;BME280;4288;48.484;10.024;2023-12-28T06:08:08;95839.06;;;2.19;nan
8501;BME280;4288;48.484;10.024;2023-12-28T06:10:37;95845.25;;;2.23;nan
8501;BME280;4288;48.484;10.024;2023-12-28T06:13:04;95846.81;;;2.24;nan
8501;BME280;4288;48.484;10.024;2023-12-28T06:15:32;95861.63;;;2.37;nan
8501;BME280;4288;48.484;10.024;2023-12-28T06:18:00;95863.47;;;2.36;nan
8501;BME280;4288;48.484;10.024;2023-12-28T06:20:27;95876.97;;;2.35;nan
8501;BME280;4288;48.484;10.024;2023-12-28T06:22:55;95875.13;;;2.35;nan
8501;BME280;4288;48.484;10.024;2023-12-28T06:25:23;95871.25;;;2.33;nan
8501;BME280;4288;48.484;10.024;2023-12-28T06:27:51;95880.41;;;2.35;nan
8501;BME280;4288;48.484;10.024;2023-12-28T06:30:18;95884.09;;;2.34;nan
8501;BME280;4288;48.484;10.024;2023-12-28T06:32:46;95890.16;;;2.35;nan
8501;BME280;4288;48.484;10.024;2023-12-28T06:35:13;95888.91;;;2.41;nan
8501;BME280;4288;48.484;10.024;2023-12-28T06:37:42;95884.16;;;2.55;nan
8501;BME280;4288;48.484;10.024;2023-12-28T06:40:11;95877.63;;;2.61;nan
8501;BME280;4288;48.484;10.024;2023-12-28T06:42:40;95884.72;;;2.69;nan
8501;BME280;4288;48.484;10.024;2023-12-28T06:45:09;95879.25;;;2.74;nan
8501;BME280;4288;48.484;10.024;2023-12-28T06:47:37;95872.59;;;2.68;nan
8501;BME280;4288;48.484;10.024;2023-12-28T06:50:05;95878.28;;;2.79;nan
8501;BME280;4288;48.484;10.024;2023-12-28T06:52:33;95875.81;;;2.73;nan
8501;BME280;4288;48.484;10.024;2023-12-28T06:55:00;95883.56;;;2.79;nan
8501;BME280;4288;48.484;10.024;2023-12-28T06:57:28;95884.72;;;2.90;nan
8501;BME280;4288;48.484;10.024;2023-12-28T06:59:57;95881.59;;;2.96;nan
8501;BME280;4288;48.484;10.024;2023-12-28T07:02:27;95873.91;;;3.03;nan
8501;BME280;4288;48.484;10.024;2023-12-28T07:04:55;95882.06;;;3.10;nan
8501;BME280;4288;48.484;10.024;2023-12-28T07:07:22;95890.06;;;3.22;nan
8501;BME280;4288;48.484;10.024;2023-12-28T07:09:50;95883.94;;;3.30;nan
8501;BME280;4288;48.484;10.024;2023-12-28T07:12:17;95893.22;;;3.36;nan
8501;BME280;4288;48.484;10.024;2023-12-28T07:14:46;95891.69;;;3.47;nan
8501;BME280;4288;48.484;10.024;2023-12-28T07:17:15;95891.84;;;3.51;nan
8501;BME280;4288;48.484;10.024;2023-12-28T07:19:43;95908.38;;;3.60;nan
8501;BME280;4288;48.484;10.024;2023-12-28T07:22:10;95904.63;;;3.61;nan
8501;BME280;4288;48.484;10.024;2023-12-28T07:24:38;95904.91;;;3.68;nan
8501;BME280;4288;48.484;10.024;2023-12-28T07:27:05;95899.31;;;3.82;nan
8501;BME280;4288;48.484;10.024;2023-12-28T07:29:32;95904.31;;;3.95;nan
8501;BME280;4288;48.484;10.024;2023-12-28T07:32:00;95895.84;;;4.14;nan
8501;BME280;4288;48.484;10.024;2023-12-28T07:34:28;95894.78;;;4.27;nan
8501;BME280;4288;48.484;10.024;2023-12-28T07:36:56;95889.91;;;4.53;nan
8501;BME280;4288;48.484;10.024;2023-12-28T07:39:23;95894.75;;;4.75;nan
8501;BME280;4288;48.484;10.024;2023-12-28T07:41:51;95897.50;;;4.79;nan
8501;BME280;4288;48.484;10.024;2023-12-28T07:44:18;95885.59;;;4.85;nan
8501;BME280;4288;48.484;10.024;2023-12-28T07:46:45;95887.56;;;4.88;nan
8501;BME280;4288;48.484;10.024;2023-12-28T07:49:13;95892.50;;;5.01;nan
8501;BME280;4288;48.484;10.024;2023-12-28T07:51:41;95886.28;;;5.09;nan
8501;BME280;4288;48.484;10.024;2023-12-28T07:54:09;95881.41;;;5.23;nan
8501;BME280;4288;48.484;10.024;2023-12-28T07:56:36;95888.09;;;5.33;nan
8501;BME280;4288;48.484;10.024;2023-12-28T07:59:04;95894.94;;;5.46;nan
8501;BME280;4288;48.484;10.024;2023-12-28T08:01:32;95898.47;;;5.66;nan
8501;BME280;4288;48.484;10.024;2023-12-28T08:04:00;95894.44;;;5.84;nan
8501;BME280;4288;48.484;10.024;2023-12-28T08:06:28;95892.75;;;6.07;nan
8501;BME280;4288;48.484;10.024;2023-12-28T08:08:59;95894.75;;;6.25;nan
8501;BME280;4288;48.484;10.024;2023-12-28T08:11:27;95904.59;;;6.41;nan
8501;BME280;4288;48.484;10.024;2023-12-28T08:13:55;95906.81;;;6.54;nan
8501;BME280;4288;48.484;10.024;2023-12-28T08:16:22;95902.28;;;6.55;nan
8501;BME280;4288;48.484;10.024;2023-12-28T08:18:49;95901.94;;;6.41;nan
8501;BME280;4288;48.484;10.024;2023-12-28T08:21:17;95904.59;;;6.41;nan
8501;BME280;4288;48.484;10.024;2023-12-28T08:23:44;95896.34;;;6.30;nan
8501;BME280;4288;48.484;10.024;2023-12-28T08:26:13;95900.56;;;6.31;nan
8501;BME280;4288;48.484;10.024;2023-12-28T08:28:40;95909.56;;;6.42;nan
8501;BME280;4288;48.484;10.024;2023-12-28T08:31:08;95905.16;;;6.65;nan
8501;BME280;4288;48.484;10.024;2023-12-28T08:33:35;95895.91;;;6.90;nan
8501;BME280;4288;48.484;10.024;2023-12-28T08:36:05;95905.78;;;7.09;nan
8501;BME280;4288;48.484;10.024;2023-12-28T08:38:33;95899.44;;;7.33;nan
8501;BME280;4288;48.484;10.024;2023-12-28T08:41:00;95896.84;;;7.55;nan
8501;BME280;4288;48.484;10.024;2023-12-28T08:43:30;95897.50;;;7.68;nan
8501;BME280;4288;48.484;10.024;2023-12-28T08:45:58;95891.03;;;7.88;nan
8501;BME280;4288;48.484;10.024;2023-12-28T08:48:25;95891.22;;;7.98;nan
8501;BME280;4288;48.484;10.024;2023-12-28T08:50:53;95889.91;;;8.11;nan
8501;BME280;4288;48.484;10.024;2023-12-28T08:53:20;95892.66;;;8.15;nan
8501;BME280;4288;48.484;10.024;2023-12-28T08:55:47;95904.63;;;8.25;nan
8501;BME280;4288;48.484;10.024;2023-12-28T08:58:15;95907.72;;;8.27;nan
8501;BME280;4288;48.484;10.024;2023-12-28T09:00:43;95907.31;;;8.25;nan
8501;BME280;4288;48.484;10.024;2023-12-28T09:03:13;95901.53;;;8.23;nan
8501;BME280;4288;48.484;10.024;2023-12-28T09:05:40;95900.91;;;8.29;nan
8501;BME280;4288;48.484;10.024;2023-12-28T09:08:07;95911.81;;;8.24;nan
8501;BME280;4288;48.484;10.024;2023-12-28T09:10:35;95909.28;;;8.31;nan
8501;BME280;4288;48.484;10.024;2023-12-28T09:13:04;95904.81;;;8.35;nan
8501;BME280;4288;48.484;10.024;2023-12-28T09:15:32;95910.97;;;8.39;nan
8501;BME280;4288;48.484;10.024;2023-12-28T09:18:00;95913.50;;;8.32;nan
8501;BME280;4288;48.484;10.024;2023-12-28T09:20:28;95922.56;;;8.28;nan
8501;BME280;4288;48.484;10.024;2023-12-28T09:22:55;95921.50;;;8.32;nan
8501;BME280;4288;48.484;10.024;2023-12-28T09:25:23;95918.84;;;8.32;nan
8501;BME280;4288;48.484;10.024;2023-12-28T09:27:50;95919.47;;;8.26;nan
8501;BME280;4288;48.484;10.024;2023-12-28T09:30:18;95921.50;;;8.32;nan
8501;BME280;4288;48.484;10.024;2023-12-28T09:32:46;95922.69;;;8.35;nan
8501;BME280;4288;48.484;10.024;2023-12-28T09:35:14;95913.94;;;8.34;nan
8501;BME280;4288;48.484;10.024;2023-12-28T09:37:42;95913.56;;;8.36;nan
8501;BME280;4288;48.484;10.024;2023-12-28T09:40:10;95911.53;;;8.29;nan
8501;BME280;4288;48.484;10.024;2023-12-28T09:42:43;95921.63;;;8.39;nan
8501;BME280;4288;48.484;10.024;2023-12-28T09:45:13;95919.53;;;8.29;nan
8501;BME280;4288;48.484;10.024;2023-12-28T09:47:42;95919.38;;;8.41;nan
8501;BME280;4288;48.484;10.024;2023-12-28T09:50:10;95924.09;;;8.51;nan
8501;BME280;4288;48.484;10.024;2023-12-28T09:52:42;95924.16;;;8.55;nan
8501;BME280;4288;48.484;10.024;2023-12-28T09:55:10;95913.44;;;8.51;nan
8501;BME280;4288;48.484;10.024;2023-12-28T09:57:38;95904.44;;;8.59;nan
8501;BME280;4288;48.484;10.024;2023-12-28T10:00:07;95900.72;;;8.64;nan
8501;BME280;4288;48.484;10.024;2023-12-28T10:02:36;95891.22;;;8.66;nan
8501;BME280;4288;48.484;10.024;2023-12-28T10:05:06;95889.75;;;8.69;nan
8501;BME280;4288;48.484;10.024;2023-12-28T10:07:43;95899.22;;;8.66;nan
8501;BME280;4288;48.484;10.024;2023-12-28T10:10:11;95896.22;;;8.68;nan
8501;BME280;4288;48.484;10.024;2023-12-28T10:12:38;95897.00;;;8.72;nan
8501;BME280;4288;48.484;10.024;2023-12-28T10:15:06;95898.75;;;8.83;nan
8501;BME280;4288;48.484;10.024;2023-12-28T10:17:34;95900.59;;;8.79;nan
8501;BME280;4288;48.484;10.024;2023-12-28T10:20:01;95899.44;;;8.80;nan
8501;BME280;4288;48.484;10.024;2023-12-28T10:22:31;95907.06;;;8.82;nan
8501;BME280;4288;48.484;10.024;2023-12-28T10:25:01;95904.00;;;8.80;nan
8501;BME280;4288;48.484;10.024;2023-12-28T10:27:29;95904.22;;;8.94;nan
8501;BME280;4288;48.484;10.024;2023-12-28T10:29:57;95894.38;;;8.98;nan
8501;BME280;4288;48.484;10.024;2023-12-28T10:32:24;95881.34;;;8.93;nan
8501;BME280;4288;48.484;10.024;2023-12-28T10:34:52;95880.94;;;8.91;nan
8501;BME280;4288;48.484;10.024;2023-12-28T10:37:20;95886.75;;;8.96;nan
8501;BME280;4288;48.484;10.024;2023-12-28T10:39:49;95882.25;;;9.04;nan
8501;BME280;4288;48.484;10.024;2023-12-28T10:42:26;95889.03;;;8.98;nan
8501;BME280;4288;48.484;10.024;2023-12-28T10:44:59;95880.78;;;9.07;nan
8501;BME280;4288;48.484;10.024;2023-12-28T10:47:31;95884.44;;;8.95;nan
8501;BME280;4288;48.484;10.024;2023-12-28T10:50:02;95882.09;;;8.93;nan
8501;BME280;4288;48.484;10.024;2023-12-28T10:52:31;95885.72;;;9.05;nan
8501;BME280;4288;48.484;10.024;2023-12-28T10:55:17;95886.63;;;9.16;nan
8501;BME280;4288;48.484;10.024;2023-12-28T10:57:56;95892.28;;;9.11;nan
8501;BME280;4288;48.484;10.024;2023-12-28T11:00:26;95894.53;;;9.09;nan
8501;BME280;4288;48.484;10.024;2023-12-28T11:03:01;95891.50;;;9.10;nan
8501;BME280;4288;48.484;10.024;2023-12-28T11:05:29;95886.56;;;9.12;nan
8501;BME280;4288;48.484;10.024;2023-12-28T11:07:58;95883.63;;;9.21;nan
8501;BME280;4288;48.484;10.024;2023-12-28T11:10:28;95879.75;;;9.15;nan
8501;BME280;4288;48.484;10.024;2023-12-28T11:12:59;95879.34;;;9.13;nan
8501;BME280;4288;48.484;10.024;2023-12-28T11:15:27;95883.63;;;9.21;nan
8501;BME280;4288;48.484;10.024;2023-12-28T11:17:55;95878.00;;;9.26;nan
8501;BME280;4288;48.484;10.024;2023-12-28T11:20:22;95873.50;;;9.33;nan
8501;BME280;4288;48.484;10.024;2023-12-28T11:22:52;95870.91;;;9.40;nan
8501;BME280;4288;48.484;10.024;2023-12-28T11:25:19;95866.47;;;9.48;nan
8501;BME280;4288;48.484;10.024;2023-12-28T11:27:47;95856.97;;;9.54;nan
8501;BME280;4288;48.484;10.024;2023-12-28T11:30:16;95862.06;;;9.33;nan
8501;BME280;4288;48.484;10.024;2023-12-28T11:32:44;95864.94;;;9.50;nan
8501;BME280;4288;48.484;10.024;2023-12-28T11:35:12;95848.66;;;9.59;nan
8501;BME280;4288;48.484;10.024;2023-12-28T11:37:42;95850.03;;;9.46;nan
8501;BME280;4288;48.484;10.024;2023-12-28T11:40:16;95845.50;;;9.50;nan
8501;BME280;4288;48.484;10.024;2023-12-28T11:42:52;95846.28;;;9.50;nan
8501;BME280;4288;48.484;10.024;2023-12-28T11:45:22;95859.19;;;9.48;nan
8501;BME280;4288;48.484;10.024;2023-12-28T11:47:59;95852.91;;;9.63;nan
8501;BME280;4288;48.484;10.024;2023-12-28T11:50:27;95848.81;;;9.73;nan
8501;BME280;4288;48.484;10.024;2023-12-28T11:52:54;95848.81;;;9.73;nan
8501;BME280;4288;48.484;10.024;2023-12-28T11:55:22;95840.47;;;9.78;nan
8501;BME280;4288;48.484;10.024;2023-12-28T11:57:49;95843.38;;;9.66;nan
8501;BME280;4288;48.484;10.024;2023-12-28T12:00:20;95841.22;;;9.75;nan
8501;BME280;4288;48.484;10.024;2023-12-28T12:02:47;95841.28;;;9.82;nan
8501;BME280;4288;48.484;10.024;2023-12-28T12:05:15;95837.84;;;9.81;nan
8501;BME280;4288;48.484;10.024;2023-12-28T12:07:43;95832.88;;;9.80;nan
8501;BME280;4288;48.484;10.024;2023-12-28T12:10:15;95826.94;;;9.97;nan
8501;BME280;4288;48.484;10.024;2023-12-28T12:12:43;95827.69;;;9.94;nan
8501;BME280;4288;48.484;10.024;2023-12-28T12:15:11;95820.28;;;9.80;nan
8501;BME280;4288;48.484;10.024;2023-12-28T12:17:40;95821.69;;;10.08;nan
8501;BME280;4288;48.484;10.024;2023-12-28T12:20:09;95825.38;;;9.93;nan
8501;BME280;4288;48.484;10.024;2023-12-28T12:22:36;95812.25;;;10.17;nan
8501;BME280;4288;48.484;10.024;2023-12-28T12:25:07;95813.91;;;10.32;nan
8501;BME280;4288;48.484;10.024;2023-12-28T12:27:35;95806.66;;;10.33;nan
8501;BME280;4288;48.484;10.024;2023-12-28T12:30:05;95802.13;;;10.40;nan
8501;BME280;4288;48.484;10.024;2023-12-28T12:32:33;95804.09;;;10.03;nan
8501;BME280;4288;48.484;10.024;2023-12-28T12:35:05;95812.13;;;10.07;nan
8501;BME280;4288;48.484;10.024;2023-12-28T12:37:33;95810.75;;;9.79;nan
8501;BME280;4288;48.484;10.024;2023-12-28T12:40:00;95810.88;;;9.94;nan
8501;BME280;4288;48.484;10.024;2023-12-28T12:42:28;95809.84;;;10.05;nan
8501;BME280;4288;48.484;10.024;2023-12-28T12:44:56;95801.09;;;10.08;nan
8501;BME280;4288;48.484;10.024;2023-12-28T12:47:23;95800.03;;;10.16;nan
8501;BME280;4288;48.484;10.024;2023-12-28T12:49:52;95804.28;;;10.21;nan
8501;BME280;4288;48.484;10.024;2023-12-28T12:52:21;95801.59;;;10.17;nan
8501;BME280;4288;48.484;10.024;2023-12-28T12:54:53;95798.63;;;10.29;nan
8501;BME280;4288;48.484;10.024;2023-12-28T12:57:21;95797.00;;;10.18;nan
8501;BME280;4288;48.484;10.024;2023-12-28T12:59:48;95817.31;;;10.26;nan
8501;BME280;4288;48.484;10.024;2023-12-28T13:02:17;95808.13;;;10.27;nan
8501;BME280;4288;48.484;10.024;2023-12-28T13:04:44;95807.47;;;10.37;nan
8501;BME280;4288;48.484;10.024;2023-12-28T13:07:12;95792.78;;;10.17;nan
8501;BME280;4288;48.484;10.024;2023-12-28T13:09:40;95797.06;;;10.28;nan
8501;BME280;4288;48.484;10.024;2023-12-28T13:12:08;95800.94;;;10.34;nan
8501;BME280;4288;48.484;10.024;2023-12-28T13:14:35;95793.34;;;10.40;nan
8501;BME280;4288;48.484;10.024;2023-12-28T13:17:03;95807.34;;;10.23;nan
8501;BME280;4288;48.484;10.024;2023-12-28T13:19:30;95804.22;;;10.14;nan
8501;BME280;4288;48.484;10.024;2023-12-28T13:21:58;95805.66;;;10.04;nan
8501;BME280;4288;48.484;10.024;2023-12-28T13:24:25;95809.44;;;10.03;nan
8501;BME280;4288;48.484;10.024;2023-12-28T13:26:54;95813.75;;;9.74;nan
8501;BME280;4288;48.484;10.024;2023-12-28T13:29:21;95811.09;;;9.74;nan
8501;BME280;4288;48.484;10.024;2023-12-28T13:31:48;95828.94;;;9.67;nan
8501;BME280;4288;48.484;10.024;2023-12-28T13:34:16;95822.13;;;9.73;nan
8501;BME280;4288;48.484;10.024;2023-12-28T13:36:44;95818.25;;;9.67;nan
8501;BME280;4288;48.484;10.024;2023-12-28T13:39:12;95823.91;;;9.62;nan
8501;BME280;4288;48.484;10.024;2023-12-28T13:41:40;95819.06;;;9.71;nan
8501;BME280;4288;48.484;10.024;2023-12-28T13:44:09;95822.13;;;9.73;nan
8501;BME280;4288;48.484;10.024;2023-12-28T13:46:38;95820.53;;;9.65;nan
8501;BME280;4288;48.484;10.024;2023-12-28T13:49:06;95825.03;;;9.57;nan